EIN76 KBNA-EIDW
Flight info
| Callsign | EIN76 |
|---|---|
| Flight time | N/A |
| Altitude | 35000 |
| Route | KRSTA4 OLSIE DCT IIU DCT AIR DCT PSB J49 HNK DCT ALLEX/N0453F370 N431B ELSIR/M078F380 DCT 50N050W 52N040W 54N030W 55N020W DCT RESNO DCT NETKI/N0451F390 DCT REVNU DCT OLAPO OLAPO3R |
| Aircraft | A21N/M-SDE2E3FGHIRWXY/LB1 |
Departure
| Time | N/A |
|---|---|
| Airport | Nashville International Airport (KBNA) |
Arrival
| Time | 2026-05-03 21:31 |
|---|---|
| Airport | Dublin Airport (EIDW) |
| Time | Latitude | Longitude | Altitude | Speed | Heading |
|---|---|---|---|---|---|
| 2026-05-03 20:15 | 54.97775 | -20.37972 | 38247 ft | 449 kts | 82° |
| 2026-05-03 20:15 | 54.98423 | -20.27148 | 38249 ft | 449 kts | 82° |
| 2026-05-03 20:16 | 54.99059 | -20.16315 | 38246 ft | 450 kts | 82° |
| 2026-05-03 20:16 | 54.99687 | -20.05475 | 38245 ft | 450 kts | 82° |
| 2026-05-03 20:17 | 55.00113 | -19.94602 | 38246 ft | 450 kts | 86° |
| 2026-05-03 20:17 | 55.00323 | -19.83692 | 38244 ft | 450 kts | 86° |
| 2026-05-03 20:18 | 55.00525 | -19.72775 | 38241 ft | 450 kts | 86° |
| 2026-05-03 20:18 | 55.00718 | -19.61877 | 38243 ft | 450 kts | 86° |
| 2026-05-03 20:19 | 55.00901 | -19.50968 | 38240 ft | 450 kts | 86° |
| 2026-05-03 20:19 | 55.01077 | -19.40074 | 38243 ft | 449 kts | 86° |
| 2026-05-03 20:20 | 55.01242 | -19.29212 | 38232 ft | 448 kts | 86° |
| 2026-05-03 20:20 | 55.01397 | -19.18341 | 38235 ft | 449 kts | 86° |
| 2026-05-03 20:21 | 55.01542 | -19.07402 | 38234 ft | 449 kts | 86° |
| 2026-05-03 20:21 | 55.01679 | -18.96526 | 38234 ft | 449 kts | 86° |
| 2026-05-03 20:22 | 55.01805 | -18.85651 | 38244 ft | 448 kts | 86° |
| 2026-05-03 20:22 | 55.01918 | -18.74787 | 38233 ft | 448 kts | 86° |
| 2026-05-03 20:23 | 55.02027 | -18.63925 | 38229 ft | 448 kts | 86° |
| 2026-05-03 20:23 | 55.02124 | -18.53046 | 38226 ft | 448 kts | 86° |
| 2026-05-03 20:24 | 55.02211 | -18.42180 | 38219 ft | 448 kts | 87° |
| 2026-05-03 20:24 | 55.02289 | -18.31315 | 38238 ft | 448 kts | 87° |
| 2026-05-03 20:25 | 55.02356 | -18.20445 | 38225 ft | 448 kts | 87° |
| 2026-05-03 20:25 | 55.02410 | -18.09586 | 38223 ft | 448 kts | 87° |
| 2026-05-03 20:26 | 55.02459 | -17.98709 | 38223 ft | 448 kts | 87° |
| 2026-05-03 20:26 | 55.02494 | -17.87854 | 38211 ft | 448 kts | 87° |
| 2026-05-03 20:27 | 55.02522 | -17.76984 | 38220 ft | 448 kts | 87° |
| 2026-05-03 20:27 | 55.02535 | -17.66128 | 38218 ft | 447 kts | 88° |
| 2026-05-03 20:28 | 55.02537 | -17.55286 | 38214 ft | 447 kts | 87° |
| 2026-05-03 20:28 | 55.02536 | -17.44463 | 38213 ft | 447 kts | 88° |
| 2026-05-03 20:29 | 55.02528 | -17.33637 | 38213 ft | 447 kts | 87° |
| 2026-05-03 20:29 | 55.02512 | -17.22792 | 38213 ft | 447 kts | 88° |
| 2026-05-03 20:30 | 55.02483 | -17.11962 | 38212 ft | 447 kts | 88° |
| 2026-05-03 20:30 | 55.02443 | -17.01133 | 38208 ft | 447 kts | 88° |
| 2026-05-03 20:31 | 55.02408 | -16.92050 | 38206 ft | 447 kts | 88° |
| 2026-05-03 20:31 | 55.02348 | -16.81213 | 38207 ft | 447 kts | 88° |
| 2026-05-03 20:32 | 55.02277 | -16.70370 | 38204 ft | 447 kts | 88° |
| 2026-05-03 20:32 | 55.02201 | -16.59528 | 38219 ft | 447 kts | 88° |
| 2026-05-03 20:33 | 55.02113 | -16.48693 | 38208 ft | 447 kts | 88° |
| 2026-05-03 20:33 | 55.02008 | -16.37848 | 38206 ft | 447 kts | 88° |
| 2026-05-03 20:34 | 55.01898 | -16.27006 | 38204 ft | 447 kts | 88° |
| 2026-05-03 20:34 | 55.01796 | -16.16236 | 38205 ft | 447 kts | 88° |
| 2026-05-03 20:35 | 55.01685 | -16.05396 | 38202 ft | 447 kts | 88° |
| 2026-05-03 20:35 | 55.01559 | -15.94563 | 38204 ft | 447 kts | 88° |
| 2026-05-03 20:36 | 55.01418 | -15.83726 | 38202 ft | 447 kts | 89° |
| 2026-05-03 20:36 | 55.01261 | -15.72896 | 38200 ft | 447 kts | 89° |
| 2026-05-03 20:37 | 55.01098 | -15.62061 | 38182 ft | 447 kts | 89° |
| 2026-05-03 20:37 | 55.00926 | -15.51234 | 38197 ft | 447 kts | 89° |
| 2026-05-03 20:38 | 55.00747 | -15.40393 | 38197 ft | 447 kts | 89° |
| 2026-05-03 20:38 | 55.00552 | -15.29546 | 38197 ft | 448 kts | 89° |
| 2026-05-03 20:39 | 55.00350 | -15.18781 | 38188 ft | 448 kts | 89° |
| 2026-05-03 20:39 | 55.00138 | -15.07932 | 38194 ft | 448 kts | 89° |
| 2026-05-03 20:40 | 54.99992 | -14.97101 | 38194 ft | 447 kts | 87° |
| 2026-05-03 20:40 | 55.00036 | -14.86260 | 38207 ft | 447 kts | 86° |
| 2026-05-03 20:41 | 55.00064 | -14.75432 | 38189 ft | 447 kts | 87° |
| 2026-05-03 20:41 | 55.00084 | -14.64597 | 38195 ft | 447 kts | 87° |
| 2026-05-03 20:42 | 55.00091 | -14.53767 | 38189 ft | 447 kts | 87° |
| 2026-05-03 20:42 | 55.00088 | -14.42996 | 38185 ft | 447 kts | 87° |
| 2026-05-03 20:43 | 55.00073 | -14.32168 | 38201 ft | 447 kts | 87° |
| 2026-05-03 20:43 | 55.00028 | -14.21332 | 38186 ft | 448 kts | 87° |
| 2026-05-03 20:44 | 54.99995 | -14.10484 | 38180 ft | 448 kts | 87° |
| 2026-05-03 20:44 | 54.99845 | -13.99643 | 38176 ft | 450 kts | 94° |
| 2026-05-03 20:45 | 54.98650 | -13.88905 | 38185 ft | 452 kts | 99° |
| 2026-05-03 20:45 | 54.97329 | -13.78201 | 38176 ft | 452 kts | 99° |
| 2026-05-03 20:46 | 54.96025 | -13.67482 | 38180 ft | 453 kts | 98° |
| 2026-05-03 20:46 | 54.94732 | -13.56824 | 38171 ft | 453 kts | 99° |
| 2026-05-03 20:47 | 54.93407 | -13.46105 | 38171 ft | 453 kts | 99° |
| 2026-05-03 20:47 | 54.92066 | -13.35403 | 38164 ft | 453 kts | 99° |
| 2026-05-03 20:48 | 54.90717 | -13.24703 | 38165 ft | 453 kts | 99° |
| 2026-05-03 20:48 | 54.89361 | -13.13999 | 38176 ft | 453 kts | 99° |
| 2026-05-03 20:49 | 54.87993 | -13.03299 | 38173 ft | 454 kts | 99° |
| 2026-05-03 20:49 | 54.86618 | -12.92612 | 38156 ft | 454 kts | 99° |
| 2026-05-03 20:50 | 54.85227 | -12.81928 | 38150 ft | 454 kts | 99° |
| 2026-05-03 20:50 | 54.83830 | -12.71256 | 38160 ft | 453 kts | 99° |
| 2026-05-03 20:51 | 54.82440 | -12.60678 | 38160 ft | 453 kts | 99° |
| 2026-05-03 20:51 | 54.81028 | -12.50039 | 38157 ft | 453 kts | 100° |
| 2026-05-03 20:52 | 54.79606 | -12.39413 | 38151 ft | 453 kts | 100° |
| 2026-05-03 20:52 | 54.78177 | -12.28779 | 38149 ft | 453 kts | 100° |
| 2026-05-03 20:53 | 54.76731 | -12.18159 | 38156 ft | 453 kts | 100° |
| 2026-05-03 20:53 | 54.75282 | -12.07537 | 38160 ft | 453 kts | 100° |
| 2026-05-03 20:54 | 54.73822 | -11.96931 | 38152 ft | 453 kts | 100° |
| 2026-05-03 20:54 | 54.71610 | -11.81016 | 38146 ft | 454 kts | 100° |
| 2026-05-03 20:55 | 54.70125 | -11.70419 | 38152 ft | 454 kts | 101° |
| 2026-05-03 20:55 | 54.68635 | -11.59848 | 38134 ft | 452 kts | 101° |
| 2026-05-03 20:56 | 54.67137 | -11.49290 | 38130 ft | 452 kts | 101° |
| 2026-05-03 20:56 | 54.65639 | -11.38808 | 38130 ft | 453 kts | 101° |
| 2026-05-03 20:57 | 54.64122 | -11.28254 | 38128 ft | 453 kts | 101° |
| 2026-05-03 20:57 | 54.62596 | -11.17703 | 38123 ft | 453 kts | 101° |
| 2026-05-03 20:58 | 54.61057 | -11.07156 | 38120 ft | 453 kts | 101° |
| 2026-05-03 20:58 | 54.59510 | -10.96617 | 38121 ft | 453 kts | 101° |
| 2026-05-03 20:59 | 54.57955 | -10.86092 | 38124 ft | 452 kts | 101° |
| 2026-05-03 20:59 | 54.56388 | -10.75581 | 38115 ft | 453 kts | 101° |
| 2026-05-03 21:00 | 54.55079 | -10.66847 | 38110 ft | 453 kts | 101° |
| 2026-05-03 21:00 | 54.53239 | -10.54654 | 38113 ft | 451 kts | 101° |
| 2026-05-03 21:01 | 54.51646 | -10.44133 | 38110 ft | 451 kts | 102° |
| 2026-05-03 21:01 | 54.50061 | -10.33761 | 38098 ft | 451 kts | 102° |
| 2026-05-03 21:02 | 54.48458 | -10.23315 | 38098 ft | 451 kts | 102° |
| 2026-05-03 21:02 | 54.46824 | -10.12871 | 38098 ft | 453 kts | 103° |
| 2026-05-03 21:03 | 54.44610 | -10.02680 | 38096 ft | 456 kts | 109° |
| 2026-05-03 21:03 | 54.42284 | -9.92559 | 38090 ft | 456 kts | 108° |
| 2026-05-03 21:04 | 54.39952 | -9.82432 | 38074 ft | 456 kts | 109° |
| 2026-05-03 21:04 | 54.37608 | -9.72318 | 38075 ft | 456 kts | 108° |
| 2026-05-03 21:05 | 54.35261 | -9.62223 | 38071 ft | 455 kts | 109° |
| 2026-05-03 21:05 | 54.32911 | -9.52159 | 38056 ft | 454 kts | 109° |
| 2026-05-03 21:06 | 54.30554 | -9.42124 | 38057 ft | 454 kts | 109° |
| 2026-05-03 21:06 | 54.28191 | -9.32092 | 38034 ft | 454 kts | 109° |
| 2026-05-03 21:07 | 54.25832 | -9.22140 | 38034 ft | 454 kts | 109° |
| 2026-05-03 21:07 | 54.23453 | -9.12142 | 38022 ft | 454 kts | 109° |
| 2026-05-03 21:08 | 54.21069 | -9.02153 | 38024 ft | 454 kts | 110° |
| 2026-05-03 21:08 | 54.18668 | -8.92161 | 38019 ft | 455 kts | 110° |
| 2026-05-03 21:09 | 54.16256 | -8.82169 | 38023 ft | 454 kts | 110° |
| 2026-05-03 21:09 | 54.13852 | -8.72248 | 37827 ft | 448 kts | 110° |
| 2026-05-03 21:10 | 54.12656 | -8.67338 | 37291 ft | 448 kts | 110° |
| 2026-05-03 21:10 | 54.11457 | -8.62426 | 36591 ft | 449 kts | 109° |
| 2026-05-03 21:10 | 54.10256 | -8.57514 | 35885 ft | 449 kts | 109° |
| 2026-05-03 21:10 | 54.09053 | -8.52608 | 35206 ft | 448 kts | 108° |
| 2026-05-03 21:11 | 54.07856 | -8.47731 | 34515 ft | 445 kts | 107° |
| 2026-05-03 21:11 | 54.06653 | -8.42891 | 33822 ft | 442 kts | 107° |
| 2026-05-03 21:11 | 54.05457 | -8.38089 | 33048 ft | 439 kts | 107° |
| 2026-05-03 21:11 | 54.04272 | -8.33303 | 32324 ft | 438 kts | 107° |
| 2026-05-03 21:12 | 54.03089 | -8.28520 | 31549 ft | 439 kts | 107° |
| 2026-05-03 21:12 | 54.01904 | -8.23732 | 30760 ft | 439 kts | 106° |
| 2026-05-03 21:12 | 54.00717 | -8.18955 | 29964 ft | 439 kts | 106° |
| 2026-05-03 21:12 | 53.99509 | -8.14102 | 29025 ft | 439 kts | 107° |
| 2026-05-03 21:13 | 53.98313 | -8.09320 | 28146 ft | 442 kts | 108° |
| 2026-05-03 21:13 | 53.97118 | -8.04543 | 27337 ft | 445 kts | 108° |
| 2026-05-03 21:13 | 53.95902 | -7.99706 | 26380 ft | 446 kts | 109° |
| 2026-05-03 21:13 | 53.94683 | -7.94842 | 25411 ft | 448 kts | 110° |
| 2026-05-03 21:14 | 53.93458 | -7.89967 | 24526 ft | 449 kts | 110° |
| 2026-05-03 21:14 | 53.92232 | -7.85110 | 23803 ft | 446 kts | 111° |
| 2026-05-03 21:14 | 53.91013 | -7.80298 | 23027 ft | 443 kts | 111° |
| 2026-05-03 21:14 | 53.89799 | -7.75521 | 22293 ft | 443 kts | 111° |
| 2026-05-03 21:15 | 53.88961 | -7.72226 | 21987 ft | 453 kts | 112° |
| 2026-05-03 21:15 | 53.87717 | -7.67341 | 21433 ft | 448 kts | 112° |
| 2026-05-03 21:15 | 53.86488 | -7.62530 | 20804 ft | 441 kts | 112° |
| 2026-05-03 21:15 | 53.85275 | -7.57790 | 20134 ft | 436 kts | 112° |
| 2026-05-03 21:16 | 53.84074 | -7.53105 | 19487 ft | 431 kts | 112° |
| 2026-05-03 21:16 | 53.82886 | -7.48484 | 18861 ft | 426 kts | 112° |
| 2026-05-03 21:16 | 53.81705 | -7.43892 | 18145 ft | 425 kts | 112° |
| 2026-05-03 21:16 | 53.80532 | -7.39311 | 17359 ft | 423 kts | 112° |
| 2026-05-03 21:17 | 53.79367 | -7.34760 | 16715 ft | 419 kts | 112° |
| 2026-05-03 21:17 | 53.78432 | -7.30154 | 16144 ft | 411 kts | 101° |
| 2026-05-03 21:17 | 53.78206 | -7.25363 | 15602 ft | 412 kts | 86° |
| 2026-05-03 21:17 | 53.78450 | -7.20553 | 15031 ft | 406 kts | 83° |
| 2026-05-03 21:18 | 53.78740 | -7.15836 | 14544 ft | 400 kts | 83° |
| 2026-05-03 21:18 | 53.79015 | -7.11205 | 14114 ft | 393 kts | 83° |
| 2026-05-03 21:18 | 53.79275 | -7.06583 | 13559 ft | 389 kts | 83° |
| 2026-05-03 21:18 | 53.79526 | -7.02071 | 12927 ft | 386 kts | 84° |
| 2026-05-03 21:19 | 53.79770 | -6.97599 | 12395 ft | 375 kts | 84° |
| 2026-05-03 21:19 | 53.80000 | -6.93330 | 12016 ft | 354 kts | 84° |
| 2026-05-03 21:19 | 53.80216 | -6.89304 | 11699 ft | 335 kts | 84° |
| 2026-05-03 21:19 | 53.80417 | -6.85475 | 11360 ft | 319 kts | 84° |
| 2026-05-03 21:20 | 53.80299 | -6.81819 | 11025 ft | 307 kts | 102° |
| 2026-05-03 21:20 | 53.79531 | -6.78537 | 10735 ft | 296 kts | 119° |
| 2026-05-03 21:20 | 53.78253 | -6.75876 | 10352 ft | 290 kts | 136° |
| 2026-05-03 21:20 | 53.76584 | -6.74003 | 9849 ft | 289 kts | 154° |
| 2026-05-03 21:21 | 53.74649 | -6.73054 | 9318 ft | 294 kts | 170° |
| 2026-05-03 21:21 | 53.72608 | -6.72718 | 8870 ft | 293 kts | 173° |
| 2026-05-03 21:21 | 53.70608 | -6.72448 | 8560 ft | 282 kts | 173° |
| 2026-05-03 21:21 | 53.68694 | -6.72163 | 8323 ft | 270 kts | 173° |
| 2026-05-03 21:22 | 53.66865 | -6.71867 | 8089 ft | 258 kts | 172° |
| 2026-05-03 21:22 | 53.65105 | -6.71569 | 7851 ft | 249 kts | 172° |
| 2026-05-03 21:22 | 53.63410 | -6.71277 | 7617 ft | 241 kts | 172° |
| 2026-05-03 21:22 | 53.61750 | -6.70985 | 7293 ft | 239 kts | 172° |
| 2026-05-03 21:23 | 53.60107 | -6.70693 | 6997 ft | 237 kts | 171° |
| 2026-05-03 21:23 | 53.58473 | -6.70402 | 6703 ft | 235 kts | 172° |
| 2026-05-03 21:23 | 53.56850 | -6.70113 | 6408 ft | 234 kts | 172° |
| 2026-05-03 21:23 | 53.55237 | -6.69824 | 6123 ft | 230 kts | 172° |
| 2026-05-03 21:24 | 53.53682 | -6.69544 | 5906 ft | 219 kts | 171° |
| 2026-05-03 21:24 | 53.52203 | -6.69277 | 5634 ft | 211 kts | 171° |
| 2026-05-03 21:24 | 53.50749 | -6.69013 | 5300 ft | 209 kts | 171° |
| 2026-05-03 21:24 | 53.49303 | -6.68752 | 4968 ft | 209 kts | 171° |
| 2026-05-03 21:25 | 53.47864 | -6.68491 | 4630 ft | 207 kts | 168° |
| 2026-05-03 21:25 | 53.46528 | -6.67763 | 4254 ft | 198 kts | 138° |
| 2026-05-03 21:25 | 53.45753 | -6.65977 | 3928 ft | 189 kts | 103° |
| 2026-05-03 21:25 | 53.45551 | -6.63822 | 3760 ft | 186 kts | 86° |
| 2026-05-03 21:26 | 53.45538 | -6.61655 | 3738 ft | 186 kts | 91° |
| 2026-05-03 21:26 | 53.45435 | -6.59514 | 3764 ft | 186 kts | 92° |
| 2026-05-03 21:26 | 53.45323 | -6.57437 | 3695 ft | 170 kts | 92° |
| 2026-05-03 21:26 | 53.45219 | -6.55528 | 3532 ft | 159 kts | 91° |
| 2026-05-03 21:27 | 53.45120 | -6.53699 | 3330 ft | 156 kts | 92° |
| 2026-05-03 21:27 | 53.45021 | -6.51884 | 3117 ft | 156 kts | 92° |
| 2026-05-03 21:27 | 53.44921 | -6.50075 | 2903 ft | 155 kts | 91° |
| 2026-05-03 21:27 | 53.44821 | -6.48248 | 2689 ft | 155 kts | 91° |
| 2026-05-03 21:28 | 53.44723 | -6.46449 | 2480 ft | 155 kts | 92° |
| 2026-05-03 21:28 | 53.44626 | -6.44685 | 2271 ft | 153 kts | 92° |
| 2026-05-03 21:28 | 53.44530 | -6.42938 | 2057 ft | 144 kts | 92° |
| 2026-05-03 21:28 | 53.44447 | -6.41419 | 1892 ft | 124 kts | 91° |
| 2026-05-03 21:29 | 53.44369 | -6.39991 | 1723 ft | 123 kts | 90° |
| 2026-05-03 21:29 | 53.44305 | -6.38570 | 1548 ft | 122 kts | 92° |
| 2026-05-03 21:29 | 53.44220 | -6.37149 | 1349 ft | 123 kts | 92° |
| 2026-05-03 21:29 | 53.44144 | -6.35714 | 1178 ft | 124 kts | 91° |
| 2026-05-03 21:30 | 53.44068 | -6.34278 | 1013 ft | 123 kts | 90° |
| 2026-05-03 21:30 | 53.43990 | -6.32832 | 816 ft | 123 kts | 92° |
| 2026-05-03 21:30 | 53.43899 | -6.31402 | 644 ft | 123 kts | 90° |
| 2026-05-03 21:30 | 53.43825 | -6.29997 | 486 ft | 120 kts | 92° |
| 2026-05-03 21:31 | 53.43745 | -6.28598 | 363 ft | 121 kts | 91° |
| 2026-05-03 21:31 | 53.43668 | -6.27205 | 241 ft | 114 kts | 92° |
| 2026-05-03 21:31 | 53.43623 | -6.26220 | 233 ft | 43 kts | 95° |
| 2026-05-03 21:31 | 53.43600 | -6.25897 | 232 ft | 21 kts | 94° |
| 2026-05-03 21:32 | 53.43505 | -6.25763 | 230 ft | 16 kts | 154° |
| 2026-05-03 21:32 | 53.43393 | -6.25678 | 230 ft | 19 kts | 156° |
| 2026-05-03 21:32 | 53.43264 | -6.25590 | 230 ft | 20 kts | 176° |
| 2026-05-03 21:32 | 53.43178 | -6.25539 | 232 ft | 13 kts | 154° |
| 2026-05-03 21:33 | 53.43086 | -6.25471 | 230 ft | 15 kts | 156° |
| 2026-05-03 21:33 | 53.42988 | -6.25396 | 230 ft | 16 kts | 155° |
| 2026-05-03 21:33 | 53.42882 | -6.25306 | 230 ft | 18 kts | 154° |
| 2026-05-03 21:33 | 53.42765 | -6.25221 | 230 ft | 19 kts | 157° |
| 2026-05-03 21:34 | 53.42701 | -6.25113 | 230 ft | 14 kts | 139° |
| 2026-05-03 21:34 | 53.42612 | -6.25041 | 231 ft | 15 kts | 156° |
| 2026-05-03 21:34 | 53.42512 | -6.24968 | 230 ft | 16 kts | 156° |
| 2026-05-03 21:34 | 53.42402 | -6.24890 | 232 ft | 18 kts | 156° |
| 2026-05-03 21:35 | 53.42388 | -6.24732 | 230 ft | 13 kts | 50° |
| 2026-05-03 21:35 | 53.42435 | -6.24597 | 231 ft | 13 kts | 61° |
| 2026-05-03 21:35 | 53.42449 | -6.24548 | 231 ft | 4 kts | 72° |
| 2026-05-03 21:35 | 53.42443 | -6.24492 | 230 ft | 6 kts | 123° |
| 2026-05-03 21:36 | 53.42422 | -6.24452 | 230 ft | 3 kts | 133° |
| 2026-05-03 21:36 | 53.42411 | -6.24432 | 230 ft | 0 kts | 133° |